Time;durP1;ratioP1;P1;durP2;ratioP2;P2;SDS_P1;SDS_P2;PMS_P1;PMS_P2;Temp;Humidity;BMP_temperature;BMP_pressure;BME280_temperature;BME280_humidity;BME280_pressure;Samples;Min_cycle;Max_cycle;Signal;HPM_P1;HPM_P2
2022/08/29 00:00:18;;;;;;;5.97;3.40;;;;;;;-148.88;76.66;76020.97;5079302;28;20029;-78
2022/08/29 00:02:47;;;;;;;6.95;3.20;;;;;;;-148.88;76.97;76041.28;5064093;28;20411;-78
2022/08/29 00:05:12;;;;;;;8.05;3.47;;;;;;;-148.88;76.93;76049.41;5064376;28;20055;-78
2022/08/29 00:07:37;;;;;;;7.72;3.50;;;;;;;-148.88;77.80;76053.47;5062807;28;20025;-78
2022/08/29 00:10:05;;;;;;;7.47;3.40;;;;;;;-148.88;78.18;76049.41;5064138;28;20054;-78
2022/08/29 00:12:30;;;;;;;8.60;3.22;;;;;;;-148.88;78.30;76065.66;5063431;28;20032;-78
2022/08/29 00:14:56;;;;;;;7.93;3.42;;;;;;;-148.88;78.26;76057.53;5064378;28;20498;-78
2022/08/29 00:17:21;;;;;;;7.28;3.80;;;;;;;-148.88;78.29;76059.56;5079715;28;20056;-78
2022/08/29 00:19:46;;;;;;;7.05;3.22;;;;;;;-148.88;78.47;76061.59;5062881;28;20056;-78
2022/08/29 00:22:12;;;;;;;8.55;3.80;;;;;;;-148.88;78.44;76071.75;5063143;28;20072;-78
2022/08/29 00:24:37;;;;;;;12.40;3.85;;;;;;;-148.88;78.96;76085.97;5062186;28;20021;-78
2022/08/29 00:27:02;;;;;;;7.22;3.58;;;;;;;-148.88;79.91;76092.06;5061515;28;20107;-78
2022/08/29 00:29:28;;;;;;;6.95;3.53;;;;;;;-148.88;80.24;76092.06;5063410;28;20098;-78
2022/08/29 00:31:53;;;;;;;10.85;3.90;;;;;;;-148.88;80.11;76092.06;5062604;28;20023;-78
2022/08/29 00:34:19;;;;;;;7.00;3.67;;;;;;;-148.88;80.67;76110.34;5065438;28;20052;-78
2022/08/29 00:36:44;;;;;;;10.70;3.40;;;;;;;-148.88;80.65;76122.56;5064997;28;20080;-78
2022/08/29 00:39:10;;;;;;;10.40;3.50;;;;;;;-148.88;80.99;76122.56;5063740;28;20032;-78
2022/08/29 00:41:35;;;;;;;8.05;3.65;;;;;;;-148.88;80.94;76128.66;5080206;28;20033;-78
2022/08/29 00:44:01;;;;;;;7.45;3.58;;;;;;;-148.88;81.32;76110.34;5064540;28;20480;-78
2022/08/29 00:46:37;;;;;;;8.90;3.55;;;;;;;-148.88;80.86;76118.47;5079979;28;20120;-78
2022/08/29 00:49:12;;;;;;;6.50;3.50;;;;;;;-148.88;81.95;76132.72;5064861;28;20017;-78
2022/08/29 00:51:40;;;;;;;6.60;3.50;;;;;;;-148.88;82.24;76134.72;5064969;28;20108;-78
2022/08/29 00:54:10;;;;;;;8.45;4.03;;;;;;;-148.88;81.90;76134.72;5063677;28;20032;-78
2022/08/29 00:56:38;;;;;;;7.85;3.90;;;;;;;-148.88;82.14;76134.72;5064236;28;20550;-78
2022/08/29 00:59:19;;;;;;;7.20;3.92;;;;;;;-148.88;81.45;76118.47;5062885;28;20029;-78
2022/08/29 01:01:44;;;;;;;10.35;4.47;;;;;;;-148.88;82.84;76144.91;5064025;28;20036;-78
2022/08/29 01:04:11;;;;;;;7.07;4.07;;;;;;;-148.88;82.93;76151.00;5061788;28;20025;-78
2022/08/29 01:06:38;;;;;;;7.72;4.20;;;;;;;-148.88;82.62;76146.94;5062989;28;20064;-78
2022/08/29 01:09:05;;;;;;;8.75;3.85;;;;;;;-148.88;82.03;76136.78;5079662;28;20044;-79
2022/08/29 01:14:17;;;;;;;7.88;3.92;;;;;;;-148.88;83.49;76181.47;5064065;28;20437;-79
2022/08/29 01:16:43;;;;;;;8.75;3.72;;;;;;;-148.88;85.04;76183.50;5063321;28;20090;-78
2022/08/29 01:19:38;;;;;;;6.72;3.70;;;;;;;-148.88;84.85;76189.59;5062880;28;20036;-78
2022/08/29 01:22:22;;;;;;;7.70;4.00;;;;;;;-148.88;84.00;76175.38;5079527;28;20085;-78
2022/08/29 01:24:51;;;;;;;8.02;3.95;;;;;;;-148.88;84.56;76183.50;5063167;28;20028;-78
2022/08/29 01:27:21;;;;;;;10.20;4.10;;;;;;;-148.88;85.12;76191.63;5063407;28;20032;-78
2022/08/29 01:29:46;;;;;;;8.18;4.03;;;;;;;-148.88;85.25;76187.56;5079320;28;20102;-78
2022/08/29 01:32:12;;;;;;;7.57;4.03;;;;;;;-148.88;85.69;76203.81;5063734;28;20410;-78
2022/08/29 01:34:38;;;;;;;9.80;4.35;;;;;;;-148.88;86.45;76220.06;5062170;28;20123;-78
2022/08/29 01:37:06;;;;;;;8.85;3.95;;;;;;;-148.88;86.99;76220.06;5062198;28;20061;-78
2022/08/29 01:39:34;;;;;;;7.45;4.20;;;;;;;-148.88;87.48;76226.16;5062214;28;20032;-78
2022/08/29 01:42:04;;;;;;;8.00;4.07;;;;;;;-148.88;87.16;76226.16;5060347;28;20087;-78
2022/08/29 01:44:30;;;;;;;9.90;4.18;;;;;;;-148.88;87.43;76240.38;5062717;28;20483;-78
2022/08/29 01:46:58;;;;;;;11.27;4.63;;;;;;;-148.88;87.40;76216.00;5063528;28;20060;-78
2022/08/29 01:49:24;;;;;;;13.52;4.78;;;;;;;-148.88;88.00;76236.31;5061692;28;20031;-78
2022/08/29 01:51:50;;;;;;;8.55;3.85;;;;;;;-148.88;87.85;76238.34;5060018;28;20020;-78
2022/08/29 01:54:16;;;;;;;11.02;4.13;;;;;;;-148.88;87.85;76226.16;5059095;28;20021;-78
2022/08/29 01:56:48;;;;;;;9.00;4.45;;;;;;;-148.88;88.03;76232.25;5058655;28;20025;-78
2022/08/29 01:59:17;;;;;;;8.10;3.97;;;;;;;-148.88;87.94;76226.16;5059196;28;20051;-78
2022/08/29 02:01:48;;;;;;;7.85;4.35;;;;;;;-148.88;87.39;76230.22;5071632;28;20032;-78
2022/08/29 02:04:14;;;;;;;7.00;4.03;;;;;;;-148.88;87.92;76232.25;5055292;28;20109;-78
2022/08/29 02:06:40;;;;;;;7.57;4.25;;;;;;;-148.88;88.24;76242.41;5056305;28;20056;-78
2022/08/29 02:09:05;;;;;;;12.07;3.97;;;;;;;-148.88;88.02;76244.44;5058540;28;20032;-78
2022/08/29 02:11:31;;;;;;;9.32;3.92;;;;;;;-148.88;88.33;76234.28;5060054;28;20025;-78
2022/08/29 02:13:58;;;;;;;17.63;4.68;;;;;;;-148.88;89.07;76258.66;5060185;28;20025;-78
2022/08/29 02:16:26;;;;;;;8.15;4.35;;;;;;;-148.88;89.51;76272.88;5074214;28;20027;-78
2022/08/29 02:18:52;;;;;;;12.02;4.40;;;;;;;-148.88;89.50;76268.81;5057092;28;20021;-78
2022/08/29 02:21:19;;;;;;;10.45;4.32;;;;;;;-148.88;89.63;76268.81;5058104;28;20038;-78
2022/08/29 02:23:45;;;;;;;8.50;4.18;;;;;;;-148.88;89.57;76256.63;5060164;28;20025;-78
2022/08/29 02:26:11;;;;;;;10.02;4.53;;;;;;;-148.88;90.04;76264.75;5056595;28;20112;-78
2022/08/29 02:28:39;;;;;;;9.88;4.10;;;;;;;-148.88;89.68;76244.44;5057185;28;20045;-78
2022/08/29 02:31:13;;;;;;;9.00;4.40;;;;;;;-148.88;88.70;76240.38;5077844;22;20507;-84
2022/08/29 02:33:42;;;;;;;7.72;4.13;;;;;;;-148.88;89.46;76256.63;5053004;28;20059;-84
2022/08/29 02:36:41;;;;;;;9.75;4.60;;;;;;;-148.88;89.31;76256.63;5052487;28;20021;-85
2022/08/29 02:39:30;;;;;;;10.38;4.63;;;;;;;-148.88;89.41;76264.75;5050916;28;20041;-85
2022/08/29 02:41:55;;;;;;;7.45;3.92;;;;;;;-148.88;90.13;76264.75;5068378;28;20483;-86
2022/08/29 02:44:21;;;;;;;8.05;4.10;;;;;;;-148.88;90.11;76268.81;5052498;28;20083;-86
2022/08/29 02:46:47;;;;;;;8.63;3.80;;;;;;;-148.88;90.65;76285.06;5052459;28;20025;-86
2022/08/29 02:49:12;;;;;;;9.15;4.32;;;;;;;-148.88;90.44;76274.91;5052214;28;20056;-85
2022/08/29 02:52:03;;;;;;;10.20;4.70;;;;;;;-148.88;90.88;76293.19;5052135;28;20483;-85
2022/08/29 02:54:36;;;;;;;10.48;4.60;;;;;;;-148.88;91.78;76303.34;5038606;28;20069;-86
2022/08/29 02:57:09;;;;;;;7.15;4.15;;;;;;;-148.88;91.32;76305.38;5051353;28;20025;-84
2022/08/29 02:59:53;;;;;;;12.02;4.40;;;;;;;-148.88;90.93;76301.31;5053165;28;20056;-86
2022/08/29 03:02:29;;;;;;;;;;;;;;;;;;;;;
2022/08/29 03:05:13;;;;;;;8.68;4.00;;;;;;;-148.88;91.55;76301.31;5052575;28;20029;-86
2022/08/29 03:07:46;;;;;;;7.25;4.28;;;;;;;-148.88;90.51;76272.88;5051293;28;20021;-85
2022/08/29 03:11:20;;;;;;;10.27;4.20;;;;;;;-148.88;90.48;76274.91;5050202;28;20037;-86
2022/08/29 03:13:19;;;;;;;9.48;4.60;;;;;;;-148.88;91.97;76289.13;5048313;28;20105;-84
2022/08/29 03:15:52;;;;;;;10.82;4.88;;;;;;;-148.88;91.21;76270.84;5050984;28;20553;-85
2022/08/29 03:18:26;;;;;;;9.38;4.50;;;;;;;-148.88;91.26;76260.69;5068408;28;20052;-85
2022/08/29 03:21:23;;;;;;;12.18;4.95;;;;;;;-148.88;91.21;76272.88;5055199;28;20040;-84
2022/08/29 03:24:08;;;;;;;10.57;4.40;;;;;;;-148.88;91.56;76266.78;5057459;28;20082;-85
2022/08/29 03:27:02;;;;;;;11.65;5.43;;;;;;;-148.88;91.51;76281.00;5064880;28;20028;-85
2022/08/29 03:29:37;;;;;;;9.23;4.38;;;;;;;-148.88;91.27;76268.81;5056429;28;20031;-85
2022/08/29 03:32:31;;;;;;;9.10;4.43;;;;;;;-148.88;91.41;76278.97;5055240;28;20033;-85
2022/08/29 03:35:11;;;;;;;10.73;5.13;;;;;;;-148.88;91.49;76272.88;5056041;28;20100;-85
2022/08/29 03:37:57;;;;;;;9.02;4.50;;;;;;;-148.88;90.78;76268.81;5054450;28;20025;-85
2022/08/29 03:40:36;;;;;;;9.88;4.53;;;;;;;-148.88;90.63;76264.75;5056233;28;20021;-85
2022/08/29 03:43:10;;;;;;;7.90;4.50;;;;;;;-148.88;90.55;76266.78;5056102;28;20099;-85
2022/08/29 03:45:55;;;;;;;13.50;4.63;;;;;;;-148.88;90.60;76266.78;5055542;28;20071;-85
2022/08/29 03:48:36;;;;;;;8.93;4.40;;;;;;;-148.88;91.00;76268.81;5055815;28;20395;-85
2022/08/29 03:51:02;;;;;;;9.15;4.93;;;;;;;-148.88;91.07;76272.88;5054470;28;20056;-85
2022/08/29 03:53:58;;;;;;;10.02;4.70;;;;;;;-148.88;91.04;76285.06;5054091;28;20451;-85
2022/08/29 03:56:51;;;;;;;7.97;5.03;;;;;;;-148.88;90.97;76289.13;5054804;28;20017;-85
2022/08/29 03:59:27;;;;;;;11.25;5.28;;;;;;;-148.88;91.18;76270.84;5054385;28;20033;-87
2022/08/29 04:01:52;;;;;;;11.18;4.93;;;;;;;-148.88;91.16;76287.09;5054163;28;20110;-88
2022/08/29 04:07:03;;;;;;;9.93;5.00;;;;;;;-148.88;92.35;76293.19;5054939;28;20509;-88
2022/08/29 04:09:29;;;;;;;8.80;4.88;;;;;;;-148.88;92.55;76295.22;5054847;28;20017;-87
2022/08/29 04:11:55;;;;;;;9.23;5.20;;;;;;;-148.88;92.38;76287.09;5053496;28;20039;-88
2022/08/29 04:14:20;;;;;;;8.90;4.95;;;;;;;-148.88;91.95;76295.22;5054650;28;20040;-87
2022/08/29 04:16:49;;;;;;;10.48;4.47;;;;;;;-148.88;91.72;76281.00;5054685;28;20473;-87
2022/08/29 04:19:18;;;;;;;7.85;4.55;;;;;;;-148.88;91.56;76293.19;5054926;28;20024;-87
2022/08/29 04:21:44;;;;;;;10.15;4.78;;;;;;;-148.88;91.73;76299.28;5054600;28;20017;-85
2022/08/29 04:24:11;;;;;;;11.07;4.90;;;;;;;-148.88;91.19;76299.28;5054376;28;20441;-86
2022/08/29 04:26:36;;;;;;;10.85;5.18;;;;;;;-148.88;91.53;76301.31;5054496;28;20033;-86
2022/08/29 04:29:02;;;;;;;10.27;5.63;;;;;;;-148.88;91.58;76313.50;5053708;28;20025;-85
2022/08/29 04:31:27;;;;;;;10.93;5.47;;;;;;;-148.88;91.83;76313.50;5052664;28;20025;-86
2022/08/29 04:33:53;;;;;;;10.13;5.75;;;;;;;-148.88;91.98;76323.66;5054391;28;20486;-86
2022/08/29 04:36:18;;;;;;;8.05;5.18;;;;;;;-148.88;92.75;76327.72;5054558;28;20021;-84
2022/08/29 04:38:44;;;;;;;9.10;5.22;;;;;;;-148.88;93.07;76323.66;5054641;28;20475;-86
2022/08/29 04:41:13;;;;;;;8.43;5.10;;;;;;;-148.88;93.08;76317.56;5054455;28;20028;-84
2022/08/29 04:43:44;;;;;;;9.20;5.30;;;;;;;-148.88;92.98;76297.25;5054502;28;20495;-86
2022/08/29 04:46:10;;;;;;;9.27;4.75;;;;;;;-148.88;92.77;76309.44;5054184;28;20033;-86
2022/08/29 04:48:35;;;;;;;10.25;5.18;;;;;;;-148.88;93.06;76323.66;5053358;28;20036;-86
2022/08/29 04:51:01;;;;;;;10.38;5.10;;;;;;;-148.88;92.65;76309.44;5069739;28;20039;-85
2022/08/29 04:53:27;;;;;;;12.02;5.32;;;;;;;-148.88;92.78;76305.38;5054035;28;20034;-86
2022/08/29 04:56:05;;;;;;;10.07;5.18;;;;;;;-148.88;92.69;76307.41;5053918;28;20013;-86
2022/08/29 04:58:33;;;;;;;11.35;5.70;;;;;;;-148.88;93.26;76307.41;5054316;28;20052;-86
2022/08/29 05:00:58;;;;;;;12.40;4.90;;;;;;;-148.88;93.19;76305.38;5053673;28;20078;-85
2022/08/29 05:03:24;;;;;;;10.90;5.18;;;;;;;-148.88;93.57;76301.31;5053871;28;20029;-85
2022/08/29 05:06:07;;;;;;;12.95;5.78;;;;;;;-148.88;93.37;76301.31;5053830;28;20033;-85
2022/08/29 05:08:35;;;;;;;10.65;5.10;;;;;;;-148.88;93.55;76297.25;5069961;28;20056;-86
2022/08/29 05:11:00;;;;;;;10.35;5.45;;;;;;;-148.88;93.63;76285.06;5053926;28;20040;-86
2022/08/29 05:13:29;;;;;;;10.75;5.68;;;;;;;-148.88;93.18;76276.94;5054920;28;20104;-86
2022/08/29 05:15:55;;;;;;;12.00;5.38;;;;;;;-148.88;92.70;76281.00;5052124;28;20021;-86
2022/08/29 05:18:20;;;;;;;10.57;5.07;;;;;;;-148.88;92.82;76291.16;5052352;28;20029;-86
2022/08/29 05:20:47;;;;;;;9.27;4.75;;;;;;;-148.88;93.04;76293.19;5053599;28;20024;-87
2022/08/29 05:23:14;;;;;;;9.60;5.05;;;;;;;-148.88;93.02;76276.94;5053147;28;20031;-86
2022/08/29 05:25:40;;;;;;;9.18;4.88;;;;;;;-148.88;92.29;76285.06;5068409;28;20456;-86
2022/08/29 05:28:06;;;;;;;9.65;4.60;;;;;;;-148.88;91.89;76285.06;5068517;28;20732;-86
2022/08/29 05:30:32;;;;;;;11.05;5.28;;;;;;;-148.88;91.84;76289.13;5051523;28;20099;-87
2022/08/29 05:32:58;;;;;;;10.07;5.13;;;;;;;-148.88;92.12;76289.13;5053104;28;20029;-86
2022/08/29 05:35:23;;;;;;;8.10;4.97;;;;;;;-148.88;91.84;76287.09;5051819;28;20049;-86
2022/08/29 05:37:49;;;;;;;9.50;4.78;;;;;;;-148.88;92.14;76297.25;5068231;28;20058;-86
2022/08/29 05:40:14;;;;;;;9.93;4.50;;;;;;;-148.88;91.73;76295.22;5051818;28;20092;-86
2022/08/29 05:42:40;;;;;;;10.90;5.35;;;;;;;-148.88;91.51;76307.41;5067337;28;20021;-86
2022/08/29 05:45:06;;;;;;;11.20;5.05;;;;;;;-148.88;92.15;76305.38;5053564;28;20025;-86
2022/08/29 05:47:32;;;;;;;10.57;5.00;;;;;;;-148.88;92.17;76295.22;5051328;28;20377;-87
2022/08/29 05:49:58;;;;;;;8.50;4.72;;;;;;;-148.88;92.11;76301.31;5051658;28;20024;-86
2022/08/29 05:52:23;;;;;;;12.48;5.35;;;;;;;-148.88;91.95;76291.16;5051375;28;20021;-88
2022/08/29 05:54:49;;;;;;;8.93;4.97;;;;;;;-148.88;91.88;76293.19;5052947;28;20025;-88
2022/08/29 05:57:18;;;;;;;8.88;4.75;;;;;;;-148.88;91.83;76281.00;5051704;28;20025;-87
2022/08/29 05:59:43;;;;;;;12.85;4.75;;;;;;;-148.88;91.26;76274.91;5053395;28;20024;-86
2022/08/29 06:02:10;;;;;;;14.85;4.90;;;;;;;-148.88;91.44;76281.00;5053314;28;20025;-87
2022/08/29 06:04:36;;;;;;;11.68;5.07;;;;;;;-148.88;90.97;76260.69;5053017;28;20028;-87
2022/08/29 06:07:03;;;;;;;9.40;4.60;;;;;;;-148.88;90.82;76252.56;5051637;28;20399;-87
2022/08/29 06:09:28;;;;;;;9.23;4.97;;;;;;;-148.88;90.62;76252.56;5053109;28;20021;-86
2022/08/29 06:11:53;;;;;;;10.35;4.70;;;;;;;-148.88;90.83;76246.47;5051618;28;20094;-87
2022/08/29 06:14:19;;;;;;;11.10;4.70;;;;;;;-148.88;90.54;76242.41;5068741;28;20064;-87
2022/08/29 06:16:45;;;;;;;12.30;5.70;;;;;;;-148.88;90.63;76246.47;5052916;28;20107;-86
2022/08/29 06:19:10;;;;;;;10.88;5.00;;;;;;;-148.88;90.75;76242.41;5051650;28;20395;-86
2022/08/29 06:21:36;;;;;;;9.93;4.10;;;;;;;-148.88;89.75;76232.25;5051936;28;20112;-86
2022/08/29 06:24:03;;;;;;;12.63;4.70;;;;;;;-148.88;89.13;76216.00;5051469;28;20067;-87
2022/08/29 06:26:30;;;;;;;8.50;4.63;;;;;;;-148.88;88.90;76209.91;5068532;28;20071;-86
2022/08/29 06:28:55;;;;;;;6.90;4.28;;;;;;;-148.88;88.67;76199.75;5051467;28;20024;-87
2022/08/29 06:31:25;;;;;;;14.43;4.57;;;;;;;-148.88;89.07;76207.88;5052843;28;20490;-86
2022/08/29 06:33:52;;;;;;;8.60;4.28;;;;;;;-148.88;88.79;76179.44;5052920;28;20029;-86
2022/08/29 06:36:18;;;;;;;9.35;4.72;;;;;;;-148.88;88.80;76179.44;5052667;28;20433;-86
2022/08/29 06:38:43;;;;;;;8.88;4.38;;;;;;;-148.88;89.00;76175.38;5052930;28;20021;-86
2022/08/29 06:41:12;;;;;;;9.00;4.30;;;;;;;-148.88;89.49;76167.25;5052896;28;20029;-86
2022/08/29 06:43:39;;;;;;;8.32;4.65;;;;;;;-148.88;89.41;76151.00;5051337;28;20390;-84
2022/08/29 06:46:05;;;;;;;10.18;4.45;;;;;;;-148.88;88.35;76146.94;5068068;28;20025;-86
2022/08/29 06:48:30;;;;;;;7.55;4.50;;;;;;;-148.88;88.38;76140.84;5067960;28;20025;-86
2022/08/29 06:50:58;;;;;;;8.40;3.80;;;;;;;-148.88;87.36;76126.59;5051347;28;20340;-86
2022/08/29 06:53:25;;;;;;;7.68;4.32;;;;;;;-148.88;86.59;76108.31;5068378;28;20025;-86
2022/08/29 06:55:50;;;;;;;9.32;4.78;;;;;;;-148.88;86.98;76108.31;5055484;28;20025;-87
2022/08/29 06:58:16;;;;;;;9.68;4.55;;;;;;;-148.88;86.66;76098.16;5056612;28;20036;-86
2022/08/29 07:00:42;;;;;;;9.18;4.68;;;;;;;-148.88;86.91;76085.97;5056394;28;20029;-86
2022/08/29 07:03:08;;;;;;;12.82;4.85;;;;;;;-148.88;86.27;76069.72;5056431;28;20479;-87
2022/08/29 07:05:34;;;;;;;9.90;4.70;;;;;;;-148.88;85.02;76053.47;5055117;28;20035;-87
2022/08/29 07:08:00;;;;;;;9.25;4.80;;;;;;;-148.88;84.72;76037.22;5055170;28;20021;-86
2022/08/29 07:10:25;;;;;;;8.98;4.97;;;;;;;-148.88;84.31;76018.94;5055110;28;20027;-86
2022/08/29 07:12:51;;;;;;;8.20;4.78;;;;;;;-148.88;84.09;75998.63;5056313;28;20039;-87
2022/08/29 07:15:18;;;;;;;10.60;4.85;;;;;;;-148.88;82.31;76000.66;5056448;28;20028;-86
2022/08/29 07:17:43;;;;;;;10.80;5.28;;;;;;;-148.88;81.98;75980.34;5056113;28;20028;-87
2022/08/29 07:20:09;;;;;;;10.38;4.65;;;;;;;-148.88;81.69;75972.22;5056056;28;20028;-86
2022/08/29 07:22:35;;;;;;;10.25;4.72;;;;;;;-148.88;80.37;75953.94;5056143;28;20029;-87
2022/08/29 07:25:00;;;;;;;9.63;4.55;;;;;;;-148.88;80.48;75943.78;5054779;28;20388;-86
2022/08/29 07:27:26;;;;;;;9.88;5.05;;;;;;;-148.88;80.12;75931.59;5071533;28;20083;-86
2022/08/29 07:29:51;;;;;;;12.48;4.95;;;;;;;-148.88;80.38;75919.41;5054467;28;20024;-86
2022/08/29 07:32:16;;;;;;;10.00;5.57;;;;;;;-148.88;80.10;75909.25;5055945;28;20029;-87
2022/08/29 07:34:42;;;;;;;10.70;4.63;;;;;;;-148.88;80.48;75899.09;5055617;28;20483;-87
2022/08/29 07:37:09;;;;;;;7.93;4.72;;;;;;;-148.88;80.38;75897.06;5054526;28;20040;-87
2022/08/29 07:39:34;;;;;;;10.60;5.10;;;;;;;-148.88;80.00;75882.84;5054379;28;20495;-87
2022/08/29 07:41:59;;;;;;;12.48;4.60;;;;;;;-148.88;79.99;75862.53;5054302;28;20025;-87
2022/08/29 07:44:25;;;;;;;10.43;4.50;;;;;;;-148.88;79.98;75850.34;5071222;28;20111;-87
2022/08/29 07:46:59;;;;;;;10.10;4.47;;;;;;;-148.88;79.80;75862.53;5054337;28;20115;-87
2022/08/29 07:49:25;;;;;;;;;;;;;;;-148.88;79.27;75860.50;5054924;28;20048;-86
2022/08/29 07:51:52;;;;;;;12.40;4.53;;;;;;;-148.88;79.18;75830.03;5055471;28;19916;-86
2022/08/29 07:54:18;;;;;;;10.93;4.15;;;;;;;-148.88;77.95;75825.97;5070789;28;20108;-87
2022/08/29 07:56:45;;;;;;;10.05;4.15;;;;;;;-148.88;77.69;75801.59;5055457;28;20060;-86
2022/08/29 07:59:11;;;;;;;9.07;4.22;;;;;;;-148.88;77.31;75793.47;5070723;28;20025;-87
2022/08/29 08:01:37;;;;;;;9.63;4.68;;;;;;;-148.88;76.74;75793.47;5055326;28;20028;-87
2022/08/29 08:04:03;;;;;;;11.25;4.03;;;;;;;-148.88;76.99;75773.16;5054303;28;20037;-87
2022/08/29 08:06:29;;;;;;;11.35;4.28;;;;;;;-148.88;76.81;75765.03;5052908;28;20388;-87
2022/08/29 08:08:55;;;;;;;9.30;3.70;;;;;;;-148.88;76.57;75744.72;5053976;28;20071;-87
2022/08/29 08:11:22;;;;;;;9.50;4.38;;;;;;;-148.88;76.59;75744.72;5054604;28;20020;-87
2022/08/29 08:13:47;;;;;;;8.73;4.00;;;;;;;-148.88;76.05;75736.59;5053875;28;20412;-87
2022/08/29 08:16:17;;;;;;;11.30;4.07;;;;;;;-148.88;75.62;75720.34;5054891;28;20075;-87
2022/08/29 08:18:43;;;;;;;11.82;4.07;;;;;;;-148.88;75.59;75720.34;5054865;28;20020;-87
2022/08/29 08:21:09;;;;;;;8.57;4.50;;;;;;;-148.88;76.05;75691.91;5054780;28;20035;-87
2022/08/29 08:23:35;;;;;;;9.52;3.70;;;;;;;-148.88;75.71;75683.78;5053794;28;20391;-87
2022/08/29 08:26:01;;;;;;;8.75;3.63;;;;;;;-148.88;75.73;75659.41;5054844;28;20021;-87
2022/08/29 08:28:27;;;;;;;9.48;4.25;;;;;;;-148.88;75.49;75651.28;5054987;28;20025;-87
2022/08/29 08:30:53;;;;;;;6.32;3.50;;;;;;;-148.88;75.48;75643.16;5053306;28;20380;-87
2022/08/29 08:33:22;;;;;;;10.50;4.50;;;;;;;-148.88;75.70;75653.31;5053596;28;20537;-87
2022/08/29 08:35:47;;;;;;;8.68;4.18;;;;;;;-148.88;76.35;75651.28;5054813;28;20021;-83
2022/08/29 08:38:13;;;;;;;11.32;4.45;;;;;;;-148.88;75.13;75647.22;5070293;28;20036;-87
2022/08/29 08:40:42;;;;;;;13.05;4.50;;;;;;;-148.88;76.10;75645.19;5054516;28;20025;-87
2022/08/29 08:43:10;;;;;;;13.63;4.78;;;;;;;-148.88;75.88;75624.88;5069806;28;20028;-87
2022/08/29 08:45:37;;;;;;;9.77;4.65;;;;;;;-148.88;76.49;75633.00;5053972;28;20112;-86
2022/08/29 08:48:08;;;;;;;13.50;5.50;;;;;;;-148.88;76.26;75606.59;5069785;28;20567;-87
2022/08/29 08:50:39;;;;;;;12.52;4.05;;;;;;;-148.88;76.05;75594.44;5069796;28;20037;-88
2022/08/29 08:53:20;;;;;;;8.70;3.95;;;;;;;-148.88;75.06;75563.97;5069719;28;20057;-87
2022/08/29 08:55:54;;;;;;;13.02;4.50;;;;;;;-148.88;74.86;75553.81;5054449;28;20021;-87
2022/08/29 08:58:35;;;;;;;8.80;3.63;;;;;;;-148.88;74.96;75537.56;5053139;28;20074;-88
2022/08/29 09:01:16;;;;;;;7.43;4.35;;;;;;;-148.88;74.18;75527.41;5070470;28;20029;-87
2022/08/29 09:03:51;;;;;;;10.30;4.13;;;;;;;-148.88;74.82;75525.38;5054340;28;20104;-86
2022/08/29 09:06:25;;;;;;;16.30;4.65;;;;;;;-148.88;74.95;75517.25;5069587;28;20111;-87
2022/08/29 09:09:20;;;;;;;11.90;4.25;;;;;;;-148.88;73.34;75472.56;5069489;28;20510;-87
2022/08/29 09:12:12;;;;;;;9.48;3.47;;;;;;;-148.88;73.75;75468.50;5054334;28;20025;-87
2022/08/29 09:14:50;;;;;;;10.35;3.85;;;;;;;-148.88;73.86;75464.44;5053973;28;20048;-87
2022/08/29 09:17:47;;;;;;;8.25;3.17;;;;;;;-148.88;73.89;75446.16;5052794;28;20048;-87
2022/08/29 09:20:27;;;;;;;10.90;3.85;;;;;;;-148.88;73.49;75436.00;5050906;28;20033;-87
2022/08/29 09:23:02;;;;;;;5.15;3.05;;;;;;;-148.88;71.85;75413.66;5053405;28;20407;-88
2022/08/29 09:25:29;;;;;;;8.60;3.72;;;;;;;-148.88;72.17;75409.59;5053637;28;20025;-87
2022/08/29 09:27:57;;;;;;;7.40;3.08;;;;;;;-148.88;73.06;75415.69;5053663;28;20067;-88
2022/08/29 09:30:26;;;;;;;6.05;2.75;;;;;;;-148.88;72.16;75407.56;5053463;28;20032;-88
2022/08/29 09:33:38;;;;;;;6.78;2.85;;;;;;;-148.88;72.27;75397.41;5053720;28;20025;-88
2022/08/29 09:36:03;;;;;;;6.57;2.90;;;;;;;-148.88;71.54;75391.31;5012117;28;20018;-88
2022/08/29 09:38:28;;;;;;;7.53;3.13;;;;;;;-148.88;71.30;75373.03;5048442;28;20040;-87
2022/08/29 09:41:06;;;;;;;7.70;2.97;;;;;;;-148.88;71.21;75364.91;5053542;28;20491;-88
2022/08/29 09:43:37;;;;;;;6.72;2.90;;;;;;;-148.88;72.06;75330.38;5053498;28;20021;-88
2022/08/29 09:46:17;;;;;;;8.88;2.63;;;;;;;-148.88;70.75;75318.19;5053438;28;20107;-88
2022/08/29 09:48:58;;;;;;;8.13;3.22;;;;;;;-148.88;70.63;75291.78;5053564;28;20025;-88
2022/08/29 09:51:33;;;;;;;6.13;2.75;;;;;;;-148.88;69.69;75291.78;5053366;28;20020;-87
2022/08/29 09:54:11;;;;;;;7.65;3.28;;;;;;;-148.88;68.39;75310.06;5068757;28;20025;-88
2022/08/29 09:56:47;;;;;;;6.05;2.90;;;;;;;-148.88;69.08;75322.25;5053264;28;20112;-87
2022/08/29 09:59:24;;;;;;;8.25;2.85;;;;;;;-148.88;69.97;75346.63;5053773;28;20417;-87
2022/08/29 10:02:18;;;;;;;5.78;2.72;;;;;;;-148.88;69.10;75342.56;5053055;28;20441;-87
2022/08/29 10:04:47;;;;;;;6.50;2.65;;;;;;;-148.88;69.09;75297.88;5053094;28;20025;-87
2022/08/29 10:07:20;;;;;;;8.60;3.33;;;;;;;-148.88;69.49;75308.03;5051913;28;20399;-88
2022/08/29 10:10:15;;;;;;;7.25;2.97;;;;;;;-148.88;70.09;75316.16;5053025;28;20021;-87
2022/08/29 10:13:01;;;;;;;7.05;3.08;;;;;;;-148.88;69.59;75322.25;5051809;28;20033;-87
2022/08/29 10:15:32;;;;;;;9.00;3.22;;;;;;;-148.88;69.96;75362.88;5051711;28;20017;-88
2022/08/29 10:18:41;;;;;;;6.90;3.25;;;;;;;-148.88;70.38;75364.91;5052950;28;20059;-88
2022/08/29 10:21:11;;;;;;;7.60;3.03;;;;;;;-148.88;70.23;75360.84;5068536;28;20025;-87
2022/08/29 10:23:46;;;;;;;10.07;3.15;;;;;;;-148.88;70.08;75366.94;5052968;28;20033;-88
2022/08/29 10:26:33;;;;;;;8.65;2.90;;;;;;;-148.88;71.05;75362.88;5052743;28;20480;-87
2022/08/29 10:29:17;;;;;;;9.45;3.28;;;;;;;-148.88;70.53;75360.84;5067750;28;20021;-86
2022/08/29 10:32:10;;;;;;;8.52;3.38;;;;;;;-148.88;69.77;75326.31;5068627;28;20025;-87
2022/08/29 10:35:02;;;;;;;9.70;3.40;;;;;;;-148.88;68.93;75306.00;5068372;28;20039;-87
2022/08/29 10:37:57;;;;;;;6.50;3.20;;;;;;;-148.88;67.20;75273.53;5068780;28;20120;-87
2022/08/29 10:40:46;;;;;;;10.65;3.15;;;;;;;-148.88;67.76;75271.50;5051347;28;20029;-88
2022/08/29 10:43:18;;;;;;;9.57;3.30;;;;;;;-148.88;66.61;75263.38;5052367;28;20357;-87
2022/08/29 10:46:02;;;;;;;6.65;2.85;;;;;;;-148.88;66.62;75245.09;5068255;28;20029;-88
2022/08/29 10:48:47;;;;;;;;;;;;;;;-148.88;66.68;75228.84;5051975;28;20056;-88
2022/08/29 10:51:31;;;;;;;8.32;3.10;;;;;;;-148.88;67.67;75226.81;5050991;28;19915;-88
2022/08/29 10:54:22;;;;;;;6.57;3.22;;;;;;;-148.88;66.23;75230.88;5052595;28;20487;-88
2022/08/29 10:56:50;;;;;;;7.20;3.50;;;;;;;-148.88;67.16;75277.59;5044366;28;20047;-88
2022/08/29 10:59:24;;;;;;;7.05;3.35;;;;;;;-148.88;67.52;75265.41;5052637;28;20021;-88
2022/08/29 11:02:26;;;;;;;9.13;3.28;;;;;;;-148.88;67.94;75192.28;5052909;28;20029;-88
2022/08/29 11:04:56;;;;;;;7.20;3.10;;;;;;;-148.88;63.98;75137.44;5052406;28;20021;-89
2022/08/29 11:07:30;;;;;;;8.80;3.17;;;;;;;-148.88;64.62;75178.06;5052648;28;20565;-88
2022/08/29 11:10:02;;;;;;;6.40;3.13;;;;;;;-148.88;64.66;75206.50;5052532;28;20040;-88
2022/08/29 11:12:44;;;;;;;7.50;3.20;;;;;;;-148.88;66.27;75224.78;5052404;28;20132;-87
2022/08/29 11:15:28;;;;;;;7.60;3.35;;;;;;;-148.88;65.38;75196.34;5051374;28;20124;-88
2022/08/29 11:18:05;;;;;;;6.70;3.58;;;;;;;-148.88;65.34;75214.63;5052377;28;20087;-88
2022/08/29 11:20:37;;;;;;;10.48;3.20;;;;;;;-148.88;65.44;75192.28;5052631;28;20021;-88
2022/08/29 11:23:19;;;;;;;10.30;3.30;;;;;;;-148.88;66.32;75220.72;5052435;28;20108;-88
2022/08/29 11:25:44;;;;;;;7.30;3.30;;;;;;;-148.88;67.80;75253.22;5052288;28;20390;-88
2022/08/29 11:28:38;;;;;;;6.68;3.72;;;;;;;-148.88;67.86;75261.34;5052471;28;20071;-88
2022/08/29 11:31:16;;;;;;;11.10;3.47;;;;;;;-148.88;67.47;75255.25;5052365;28;20432;-88
2022/08/29 11:34:06;;;;;;;6.72;3.22;;;;;;;-148.88;67.37;75259.31;5052302;28;20032;-89
2022/08/29 11:36:57;;;;;;;7.50;3.25;;;;;;;-148.88;67.34;75255.25;5051079;28;20502;-88
2022/08/29 11:39:44;;;;;;;10.27;3.45;;;;;;;-148.88;67.14;75249.16;5052523;28;20029;-89
2022/08/29 11:42:12;;;;;;;6.32;3.33;;;;;;;-148.88;67.86;75263.38;5055403;28;20035;-89